createdAt,value
2023-05-22T00:00:30.139Z,20.41
2023-05-22T00:01:09.105Z,20.31
2023-05-22T00:02:30.161Z,20.29
2023-05-22T00:03:30.116Z,20.18
2023-05-22T00:04:30.172Z,20.18
2023-05-22T00:05:09.033Z,20.18
2023-05-22T00:06:29.954Z,20.14
2023-05-22T00:07:29.904Z,20.11
2023-05-22T00:08:30.061Z,20.13
2023-05-22T00:09:08.859Z,20.14
2023-05-22T00:10:29.810Z,20.19
2023-05-22T00:11:29.805Z,20.19
2023-05-22T00:12:29.777Z,20.19
2023-05-22T00:13:08.758Z,20.16
2023-05-22T00:14:29.712Z,20.09
2023-05-22T00:15:29.673Z,20.13
2023-05-22T00:16:29.717Z,20.10
2023-05-22T00:17:08.630Z,20.06
2023-05-22T00:18:29.593Z,20.09
2023-05-22T00:19:29.617Z,20.10
2023-05-22T00:20:29.542Z,20.03
2023-05-22T00:21:08.503Z,20.07
2023-05-22T00:22:29.476Z,20.07
2023-05-22T00:23:29.432Z,20.04
2023-05-22T00:24:29.401Z,20.11
2023-05-22T00:25:08.377Z,20.10
2023-05-22T00:26:29.343Z,20.11
2023-05-22T00:27:29.311Z,20.00
2023-05-22T00:28:29.285Z,19.99
2023-05-22T00:29:08.246Z,20.03
2023-05-22T00:30:29.233Z,19.99
2023-05-22T00:31:29.202Z,19.94
2023-05-22T00:32:29.197Z,19.99
2023-05-22T00:33:08.240Z,19.88
2023-05-22T00:34:29.132Z,19.89
2023-05-22T00:35:29.086Z,19.91
2023-05-22T00:36:29.076Z,19.84
2023-05-22T00:37:08.038Z,19.85
2023-05-22T00:38:28.999Z,19.94
2023-05-22T00:39:28.952Z,19.89
2023-05-22T00:40:28.950Z,19.89
2023-05-22T00:41:07.898Z,19.86
2023-05-22T00:42:28.884Z,19.88
2023-05-22T00:43:28.828Z,19.86
2023-05-22T00:44:28.819Z,19.82
2023-05-22T00:45:07.782Z,19.74
2023-05-22T00:46:28.766Z,19.84
2023-05-22T00:47:28.747Z,19.79
2023-05-22T00:48:28.699Z,19.81
2023-05-22T00:49:07.657Z,19.86
2023-05-22T00:50:28.649Z,19.88
2023-05-22T00:51:28.613Z,19.89
2023-05-22T00:52:28.580Z,19.82
2023-05-22T00:53:07.554Z,19.74
2023-05-22T00:54:28.524Z,19.77
2023-05-22T00:55:28.478Z,19.71
2023-05-22T00:56:28.476Z,19.73
2023-05-22T00:57:07.438Z,19.73
2023-05-22T00:58:28.409Z,19.77
2023-05-22T00:59:28.398Z,19.76
2023-05-22T01:00:28.341Z,19.79
2023-05-22T01:01:07.305Z,19.81
2023-05-22T01:02:28.276Z,19.79
2023-05-22T01:03:28.341Z,19.77
2023-05-22T01:04:28.226Z,19.77
2023-05-22T01:05:07.183Z,19.81
2023-05-22T01:06:28.161Z,19.79
2023-05-22T01:07:28.122Z,19.77
2023-05-22T01:08:28.098Z,19.81
2023-05-22T01:09:07.063Z,19.82
2023-05-22T01:10:28.048Z,19.82
2023-05-22T01:11:28.019Z,19.86
2023-05-22T01:12:27.978Z,19.91
2023-05-22T01:13:06.975Z,19.84
2023-05-22T01:14:27.922Z,19.84
2023-05-22T01:15:27.878Z,19.86
2023-05-22T01:16:27.911Z,19.82
2023-05-22T01:17:06.819Z,19.82
2023-05-22T01:18:27.810Z,19.73
2023-05-22T01:19:27.901Z,19.77
2023-05-22T01:20:27.754Z,19.77
2023-05-22T01:21:06.724Z,19.76
2023-05-22T01:22:27.696Z,19.81
2023-05-22T01:23:27.654Z,19.74
2023-05-22T01:24:27.621Z,19.77
2023-05-22T01:25:06.589Z,19.73
2023-05-22T01:26:27.570Z,19.71
2023-05-22T01:27:27.516Z,19.74
2023-05-22T01:28:27.505Z,19.66
2023-05-22T01:29:06.470Z,19.76
2023-05-22T01:30:27.444Z,19.71
2023-05-22T01:31:27.420Z,19.64
2023-05-22T01:32:27.438Z,19.63
2023-05-22T01:33:06.393Z,19.69
2023-05-22T01:34:27.344Z,19.67
2023-05-22T01:35:27.285Z,19.62
2023-05-22T01:36:27.262Z,19.59
2023-05-22T01:37:06.216Z,19.58
2023-05-22T01:38:27.210Z,19.47
2023-05-22T01:39:27.152Z,19.41
2023-05-22T01:40:27.158Z,19.34
2023-05-22T01:41:06.125Z,19.30
2023-05-22T01:42:27.078Z,19.37
2023-05-22T01:43:27.054Z,19.44
2023-05-22T01:44:27.024Z,19.29
2023-05-22T01:45:05.987Z,19.27
2023-05-22T01:46:26.994Z,19.27
2023-05-22T01:47:26.949Z,19.15
2023-05-22T01:48:26.918Z,19.26
2023-05-22T01:49:05.854Z,19.27
2023-05-22T01:50:26.852Z,19.19
2023-05-22T01:51:26.819Z,19.14
2023-05-22T01:52:26.795Z,19.08
2023-05-22T01:53:05.766Z,19.04
2023-05-22T01:54:26.695Z,19.04
2023-05-22T01:55:26.679Z,19.07
2023-05-22T01:56:26.670Z,19.04
2023-05-22T01:57:05.623Z,18.96
2023-05-22T01:58:26.596Z,19.07
2023-05-22T01:59:26.574Z,19.09
2023-05-22T02:00:26.612Z,19.04
2023-05-22T02:01:05.546Z,19.02
2023-05-22T02:02:26.558Z,19.11
2023-05-22T02:03:26.816Z,19.07
2023-05-22T02:04:26.411Z,18.90
2023-05-22T02:05:05.376Z,18.96
2023-05-22T02:06:26.385Z,18.74
2023-05-22T02:07:26.320Z,18.80
2023-05-22T02:08:26.291Z,18.74
2023-05-22T02:09:05.276Z,18.59
2023-05-22T02:10:26.224Z,18.60
2023-05-22T02:11:26.205Z,18.66
2023-05-22T02:12:26.164Z,18.60
2023-05-22T02:13:05.122Z,18.60
2023-05-22T02:14:26.134Z,18.55
2023-05-22T02:15:26.126Z,18.50
2023-05-22T02:16:26.109Z,18.49
2023-05-22T02:17:05.004Z,18.50
2023-05-22T02:18:25.976Z,18.47
2023-05-22T02:19:25.951Z,18.43
2023-05-22T02:20:25.925Z,18.37
2023-05-22T02:21:04.895Z,18.33
2023-05-22T02:22:25.849Z,18.40
2023-05-22T02:23:25.816Z,18.40
2023-05-22T02:24:25.794Z,18.35
2023-05-22T02:25:04.760Z,18.41
2023-05-22T02:26:25.720Z,18.31
2023-05-22T02:27:25.692Z,18.28
2023-05-22T02:28:25.684Z,18.28
2023-05-22T02:29:04.654Z,18.26
2023-05-22T02:30:25.598Z,18.20
2023-05-22T02:31:25.617Z,18.23
2023-05-22T02:32:25.586Z,18.22
2023-05-22T02:33:04.571Z,18.16
2023-05-22T02:34:25.504Z,18.25
2023-05-22T02:35:25.478Z,18.22
2023-05-22T02:36:25.439Z,18.28
2023-05-22T02:37:04.396Z,18.26
2023-05-22T02:38:25.378Z,18.25
2023-05-22T02:39:25.332Z,18.33
2023-05-22T02:40:25.316Z,18.28
2023-05-22T02:41:04.277Z,18.25
2023-05-22T02:42:25.249Z,18.26
2023-05-22T02:43:25.195Z,18.26
2023-05-22T02:44:25.169Z,18.13
2023-05-22T02:45:04.155Z,18.01
2023-05-22T02:46:25.162Z,17.94
2023-05-22T02:47:25.090Z,17.97
2023-05-22T02:48:25.070Z,17.85
2023-05-22T02:49:04.039Z,17.79
2023-05-22T02:50:24.995Z,17.82
2023-05-22T02:51:24.966Z,17.87
2023-05-22T02:52:25.016Z,17.82
2023-05-22T02:53:03.890Z,17.79
2023-05-22T02:54:24.858Z,17.70
2023-05-22T02:55:24.830Z,17.64
2023-05-22T02:56:24.822Z,17.68
2023-05-22T02:57:03.763Z,17.56
2023-05-22T02:58:24.765Z,17.52
2023-05-22T02:59:24.699Z,17.51
2023-05-22T03:00:24.703Z,17.57
2023-05-22T03:01:03.690Z,17.56
2023-05-22T03:02:24.668Z,17.64
2023-05-22T03:03:24.788Z,17.67
2023-05-22T03:04:24.552Z,17.72
2023-05-22T03:05:03.524Z,17.72
2023-05-22T03:06:24.502Z,17.76
2023-05-22T03:07:24.493Z,17.86
2023-05-22T03:08:24.412Z,17.79
2023-05-22T03:09:03.389Z,17.86
2023-05-22T03:10:24.406Z,17.86
2023-05-22T03:11:24.342Z,17.90
2023-05-22T03:12:24.301Z,17.95
2023-05-22T03:13:03.279Z,18.00
2023-05-22T03:14:24.255Z,17.92
2023-05-22T03:15:24.200Z,17.94
2023-05-22T03:16:24.206Z,17.97
2023-05-22T03:17:03.138Z,17.95
2023-05-22T03:18:25.963Z,18.03
2023-05-22T03:19:24.336Z,18.04
2023-05-22T03:20:24.068Z,17.95
2023-05-22T03:21:03.051Z,17.97
2023-05-22T03:22:23.997Z,18.05
2023-05-22T03:23:23.975Z,18.01
2023-05-22T03:24:23.936Z,18.07
2023-05-22T03:25:02.894Z,17.97
2023-05-22T03:26:23.850Z,17.97
2023-05-22T03:27:23.835Z,17.87
2023-05-22T03:28:23.828Z,17.92
2023-05-22T03:29:02.853Z,17.94
2023-05-22T03:30:23.747Z,17.95
2023-05-22T03:31:23.710Z,17.89
2023-05-22T03:32:23.714Z,18.00
2023-05-22T03:33:02.667Z,17.92
2023-05-22T03:34:23.608Z,17.80
2023-05-22T03:35:23.601Z,17.87
2023-05-22T03:36:23.568Z,17.95
2023-05-22T03:37:02.524Z,17.82
2023-05-22T03:38:23.500Z,17.86
2023-05-22T03:39:23.454Z,17.87
2023-05-22T03:40:23.448Z,17.83
2023-05-22T03:41:02.389Z,17.90
2023-05-22T03:42:23.365Z,17.97
2023-05-22T03:43:23.348Z,17.89
2023-05-22T03:44:23.324Z,17.94
2023-05-22T03:45:02.272Z,17.95
2023-05-22T03:46:23.321Z,17.82
2023-05-22T03:47:23.226Z,17.83
2023-05-22T03:48:23.210Z,17.86
2023-05-22T03:49:02.150Z,17.86
2023-05-22T03:50:23.115Z,17.87
2023-05-22T03:51:23.080Z,17.94
2023-05-22T03:52:23.062Z,17.98
2023-05-22T03:53:02.037Z,17.89
2023-05-22T03:54:23.016Z,17.95
2023-05-22T03:55:22.969Z,17.92
2023-05-22T03:56:22.950Z,17.89
2023-05-22T03:57:01.922Z,17.83
2023-05-22T03:58:22.923Z,17.92
2023-05-22T03:59:22.827Z,17.87
2023-05-22T04:00:22.868Z,17.89
2023-05-22T04:01:01.772Z,17.86
2023-05-22T04:02:22.814Z,17.83
2023-05-22T04:03:22.948Z,17.71
2023-05-22T04:04:22.704Z,17.79
2023-05-22T04:05:01.688Z,17.72
2023-05-22T04:06:22.621Z,17.76
2023-05-22T04:07:22.589Z,17.57
2023-05-22T04:08:22.571Z,17.56
2023-05-22T04:09:01.532Z,17.60
2023-05-22T04:10:22.548Z,17.60
2023-05-22T04:11:22.467Z,17.74
2023-05-22T04:12:22.425Z,17.65
2023-05-22T04:13:01.402Z,17.59
2023-05-22T04:14:22.373Z,17.65
2023-05-22T04:15:22.333Z,17.39
2023-05-22T04:16:22.434Z,17.52
2023-05-22T04:17:01.303Z,17.54
2023-05-22T04:18:22.254Z,17.49
2023-05-22T04:19:22.492Z,17.49
2023-05-22T04:20:22.178Z,17.49
2023-05-22T04:21:01.150Z,17.46
2023-05-22T04:22:22.135Z,17.51
2023-05-22T04:23:22.082Z,17.34
2023-05-22T04:24:22.076Z,17.48
2023-05-22T04:25:01.033Z,17.52
2023-05-22T04:26:22.001Z,17.49
2023-05-22T04:27:21.959Z,17.46
2023-05-22T04:28:21.925Z,17.54
2023-05-22T04:29:00.893Z,17.42
2023-05-22T04:30:21.866Z,17.51
2023-05-22T04:31:21.855Z,17.41
2023-05-22T04:32:21.849Z,17.46
2023-05-22T04:33:00.835Z,17.34
2023-05-22T04:34:21.771Z,17.42
2023-05-22T04:35:21.695Z,17.42
2023-05-22T04:36:21.690Z,17.39
2023-05-22T04:37:00.645Z,17.34
2023-05-22T04:38:21.623Z,17.31
2023-05-22T04:39:21.584Z,17.38
2023-05-22T04:40:21.555Z,17.36
2023-05-22T04:41:00.522Z,17.48
2023-05-22T04:42:21.484Z,17.48
2023-05-22T04:43:21.455Z,17.41
2023-05-22T04:44:21.443Z,17.33
2023-05-22T04:45:00.392Z,17.46
2023-05-22T04:46:21.520Z,17.46
2023-05-22T04:47:21.380Z,17.44
2023-05-22T04:48:21.323Z,17.48
2023-05-22T04:49:00.263Z,17.49
2023-05-22T04:50:21.249Z,17.48
2023-05-22T04:51:21.197Z,17.49
2023-05-22T04:52:21.192Z,17.44
2023-05-22T04:53:00.147Z,17.38
2023-05-22T04:54:21.123Z,17.31
2023-05-22T04:55:21.076Z,17.38
2023-05-22T04:56:31.810Z,17.24
2023-05-22T04:57:00.010Z,17.38
2023-05-22T04:58:21.001Z,17.41
2023-05-22T04:59:20.957Z,17.39
2023-05-22T05:00:20.929Z,17.54
2023-05-22T05:00:59.944Z,17.45
2023-05-22T05:02:20.887Z,17.36
2023-05-22T05:03:20.895Z,17.33
2023-05-22T05:04:20.787Z,17.41
2023-05-22T05:04:59.757Z,17.31
2023-05-22T05:06:20.725Z,17.42
2023-05-22T05:07:20.719Z,17.51
2023-05-22T05:08:20.672Z,17.52
2023-05-22T05:08:59.652Z,17.51
2023-05-22T05:10:20.617Z,17.52
2023-05-22T05:11:20.585Z,17.45
2023-05-22T05:12:20.557Z,17.51
2023-05-22T05:12:59.514Z,17.49
2023-05-22T05:14:20.472Z,17.56
2023-05-22T05:15:20.491Z,17.51
2023-05-22T05:16:20.479Z,17.51
2023-05-22T05:16:59.466Z,17.44
2023-05-22T05:18:20.364Z,17.45
2023-05-22T05:19:20.376Z,17.51
2023-05-22T05:20:20.305Z,17.52
2023-05-22T05:20:59.253Z,17.41
2023-05-22T05:22:20.256Z,17.51
2023-05-22T05:23:20.186Z,17.29
2023-05-22T05:24:20.164Z,17.36
2023-05-22T05:24:59.126Z,17.52
2023-05-22T05:26:20.113Z,17.52
2023-05-22T05:27:20.055Z,17.36
2023-05-22T05:28:20.044Z,17.41
2023-05-22T05:28:59.006Z,17.48
2023-05-22T05:30:20.630Z,17.46
2023-05-22T05:31:19.937Z,17.60
2023-05-22T05:32:20.116Z,17.51
2023-05-22T05:32:58.911Z,17.45
2023-05-22T05:34:19.847Z,17.31
2023-05-22T05:35:19.811Z,17.51
2023-05-22T05:36:19.778Z,17.46
2023-05-22T05:36:58.781Z,17.51
2023-05-22T05:38:19.732Z,17.48
2023-05-22T05:39:19.683Z,17.57
2023-05-22T05:40:19.681Z,17.49
2023-05-22T05:40:58.636Z,17.54
2023-05-22T05:42:19.626Z,17.60
2023-05-22T05:43:19.559Z,17.49
2023-05-22T05:44:19.533Z,17.60
2023-05-22T05:44:58.495Z,17.52
2023-05-22T05:46:19.558Z,17.63
2023-05-22T05:47:19.476Z,17.71
2023-05-22T05:48:19.395Z,17.64
2023-05-22T05:48:58.374Z,17.57
2023-05-22T05:50:19.342Z,17.60
2023-05-22T05:51:19.310Z,17.68
2023-05-22T05:52:19.303Z,17.72
2023-05-22T05:52:58.261Z,17.85
2023-05-22T05:54:19.233Z,17.70
2023-05-22T05:55:19.205Z,17.72
2023-05-22T05:56:19.168Z,17.86
2023-05-22T05:56:58.152Z,17.78
2023-05-22T05:58:19.124Z,17.74
2023-05-22T05:59:19.097Z,17.68
2023-05-22T06:00:19.030Z,17.59
2023-05-22T06:00:58.031Z,17.63
2023-05-22T06:02:19.022Z,17.64
2023-05-22T06:03:19.051Z,17.68
2023-05-22T06:04:18.921Z,17.70
2023-05-22T06:04:57.900Z,17.74
2023-05-22T06:06:18.840Z,17.78
2023-05-22T06:07:18.817Z,17.76
2023-05-22T06:08:18.799Z,17.78
2023-05-22T06:08:57.751Z,17.79
2023-05-22T06:10:18.740Z,17.76
2023-05-22T06:11:18.684Z,17.72
2023-05-22T06:12:18.676Z,17.83
2023-05-22T06:12:57.640Z,17.86
2023-05-22T06:14:18.619Z,17.85
2023-05-22T06:15:18.577Z,17.80
2023-05-22T06:16:18.599Z,17.85
2023-05-22T06:16:57.566Z,17.83
2023-05-22T06:18:18.503Z,17.82
2023-05-22T06:19:18.469Z,17.82
2023-05-22T06:20:18.412Z,17.74
2023-05-22T06:20:57.384Z,17.83
2023-05-22T06:22:18.352Z,17.71
2023-05-22T06:23:18.316Z,17.76
2023-05-22T06:24:18.326Z,17.80
2023-05-22T06:24:57.254Z,17.86
2023-05-22T06:26:18.233Z,17.71
2023-05-22T06:27:18.200Z,17.70
2023-05-22T06:28:18.174Z,17.72
2023-05-22T06:28:57.173Z,17.76
2023-05-22T06:30:28.151Z,17.82
2023-05-22T06:31:18.075Z,17.79
2023-05-22T06:32:18.150Z,17.87
2023-05-22T06:32:57.107Z,17.85
2023-05-22T06:34:18.013Z,17.87
2023-05-22T06:35:17.950Z,17.87
2023-05-22T06:36:17.934Z,17.97
2023-05-22T06:36:56.908Z,17.94
2023-05-22T06:38:17.853Z,18.00
2023-05-22T06:39:17.839Z,17.95
2023-05-22T06:40:17.782Z,17.97
2023-05-22T06:40:56.775Z,17.83
2023-05-22T06:42:17.721Z,17.89
2023-05-22T06:43:17.706Z,17.95
2023-05-22T06:44:17.674Z,17.95
2023-05-22T06:44:56.639Z,18.05
2023-05-22T06:46:17.650Z,17.95
2023-05-22T06:47:17.583Z,17.90
2023-05-22T06:48:17.540Z,17.94
2023-05-22T06:48:56.527Z,17.98
2023-05-22T06:50:17.468Z,17.95
2023-05-22T06:51:17.459Z,18.01
2023-05-22T06:52:17.431Z,18.13
2023-05-22T06:52:56.394Z,18.10
2023-05-22T06:54:17.363Z,18.25
2023-05-22T06:55:17.349Z,18.33
2023-05-22T06:56:17.291Z,18.13
2023-05-22T06:56:56.276Z,18.31
2023-05-22T06:58:17.222Z,18.29
2023-05-22T06:59:17.239Z,18.44
2023-05-22T07:00:17.888Z,18.33
2023-05-22T07:00:56.172Z,18.26
2023-05-22T07:02:17.105Z,18.25
2023-05-22T07:03:17.126Z,18.28
2023-05-22T07:04:17.049Z,18.22
2023-05-22T07:04:56.064Z,18.33
2023-05-22T07:06:17.137Z,18.44
2023-05-22T07:07:16.963Z,18.47
2023-05-22T07:08:16.922Z,18.35
2023-05-22T07:08:55.899Z,18.40
2023-05-22T07:10:16.859Z,18.49
2023-05-22T07:11:16.846Z,18.50
2023-05-22T07:12:16.809Z,18.43
2023-05-22T07:12:55.801Z,18.47
2023-05-22T07:14:16.736Z,18.50
2023-05-22T07:15:16.717Z,18.58
2023-05-22T07:16:16.705Z,18.62
2023-05-22T07:16:55.793Z,18.62
2023-05-22T07:18:16.628Z,18.55
2023-05-22T07:19:16.728Z,18.53
2023-05-22T07:20:16.550Z,18.55
2023-05-22T07:20:55.522Z,18.53
2023-05-22T07:22:16.516Z,18.47
2023-05-22T07:23:16.465Z,18.52
2023-05-22T07:24:16.423Z,18.78
2023-05-22T07:24:55.390Z,18.77
2023-05-22T07:26:16.354Z,18.81
2023-05-22T07:27:16.339Z,18.73
2023-05-22T07:28:16.300Z,18.75
2023-05-22T07:28:55.289Z,18.77
2023-05-22T07:30:16.233Z,18.63
2023-05-22T07:31:16.233Z,18.71
2023-05-22T07:32:16.202Z,18.63
2023-05-22T07:32:55.221Z,18.58
2023-05-22T07:34:16.118Z,18.70
2023-05-22T07:35:16.104Z,18.62
2023-05-22T07:36:16.058Z,18.81
2023-05-22T07:36:55.048Z,18.81
2023-05-22T07:38:15.998Z,18.86
2023-05-22T07:39:16.018Z,18.70
2023-05-22T07:40:15.916Z,18.77
2023-05-22T07:40:54.929Z,18.90
2023-05-22T07:42:15.877Z,18.77
2023-05-22T07:43:15.870Z,18.66
2023-05-22T07:44:15.820Z,18.63
2023-05-22T07:44:54.808Z,18.56
2023-05-22T07:46:15.797Z,18.60
2023-05-22T07:47:15.724Z,18.73
2023-05-22T07:48:15.730Z,18.80
2023-05-22T07:48:54.660Z,18.81
2023-05-22T07:50:15.635Z,18.84
2023-05-22T07:51:15.580Z,18.98
2023-05-22T07:52:15.573Z,19.02
2023-05-22T07:52:54.553Z,19.19
2023-05-22T07:54:15.634Z,19.26
2023-05-22T07:55:15.466Z,19.19
2023-05-22T07:56:15.421Z,19.19
2023-05-22T07:56:54.413Z,19.18
2023-05-22T07:58:15.394Z,19.31
2023-05-22T07:59:15.350Z,19.31
2023-05-22T08:00:15.321Z,19.34
2023-05-22T08:00:54.347Z,19.40
2023-05-22T08:02:15.275Z,19.40
2023-05-22T08:03:15.336Z,19.41
2023-05-22T08:04:15.292Z,19.39
2023-05-22T08:04:54.181Z,19.45
2023-05-22T08:06:15.135Z,19.41
2023-05-22T08:07:15.111Z,19.40
2023-05-22T08:08:15.059Z,19.47
2023-05-22T08:08:54.038Z,19.36
2023-05-22T08:10:15.018Z,19.29
2023-05-22T08:11:14.988Z,19.37
2023-05-22T08:12:14.968Z,19.51
2023-05-22T08:12:53.918Z,19.31
2023-05-22T08:14:14.877Z,19.34
2023-05-22T08:15:14.879Z,19.45
2023-05-22T08:16:14.848Z,19.54
2023-05-22T08:16:53.826Z,19.66
2023-05-22T08:18:14.799Z,19.69
2023-05-22T08:19:14.772Z,19.64
2023-05-22T08:20:14.787Z,19.47
2023-05-22T08:20:54.967Z,19.58
2023-05-22T08:22:14.636Z,19.66
2023-05-22T08:23:14.629Z,19.48
2023-05-22T08:24:14.573Z,19.62
2023-05-22T08:24:53.568Z,19.54
2023-05-22T08:26:14.512Z,19.51
2023-05-22T08:27:14.528Z,19.59
2023-05-22T08:28:14.678Z,19.54
2023-05-22T08:28:53.451Z,19.59
2023-05-22T08:30:14.403Z,19.66
2023-05-22T08:31:14.408Z,19.66
2023-05-22T08:32:14.337Z,19.66
2023-05-22T08:32:53.404Z,19.74
2023-05-22T08:34:14.287Z,19.76
2023-05-22T08:35:14.280Z,19.74
2023-05-22T08:36:14.227Z,19.82
2023-05-22T08:36:53.202Z,19.86
2023-05-22T08:38:14.245Z,19.82
2023-05-22T08:39:14.150Z,19.91
2023-05-22T08:40:14.167Z,19.89
2023-05-22T08:40:53.134Z,19.81
2023-05-22T08:42:14.042Z,19.88
2023-05-22T08:43:14.021Z,19.94
2023-05-22T08:44:13.995Z,20.04
2023-05-22T08:44:52.966Z,20.03
2023-05-22T08:46:13.944Z,20.09
2023-05-22T08:47:13.975Z,19.92
2023-05-22T08:48:13.890Z,20.00
2023-05-22T08:48:52.825Z,20.07
2023-05-22T08:50:13.809Z,20.10
2023-05-22T08:51:13.767Z,20.09
2023-05-22T08:52:13.775Z,20.16
2023-05-22T08:52:52.743Z,19.95
2023-05-22T08:54:13.724Z,20.09
2023-05-22T08:55:13.712Z,20.22
2023-05-22T08:56:13.604Z,20.11
2023-05-22T08:56:56.741Z,20.18
2023-05-22T08:58:13.553Z,20.29
2023-05-22T08:59:13.547Z,20.13
2023-05-22T09:00:13.521Z,20.10
2023-05-22T09:00:52.507Z,20.04
2023-05-22T09:02:13.445Z,20.07
2023-05-22T09:03:13.545Z,20.02
2023-05-22T09:04:13.418Z,20.21
2023-05-22T09:04:52.351Z,20.10
2023-05-22T09:06:13.321Z,20.07
2023-05-22T09:07:13.311Z,20.07
2023-05-22T09:08:20.479Z,19.88
2023-05-22T09:08:52.279Z,19.85
2023-05-22T09:10:13.240Z,19.66
2023-05-22T09:11:13.199Z,19.88
2023-05-22T09:12:13.142Z,19.85
2023-05-22T09:12:52.130Z,19.96
2023-05-22T09:14:13.108Z,20.02
2023-05-22T09:15:13.056Z,20.10
2023-05-22T09:16:13.096Z,19.99
2023-05-22T09:16:52.044Z,19.96
2023-05-22T09:18:13.031Z,19.95
2023-05-22T09:19:12.996Z,19.85
2023-05-22T09:20:12.912Z,19.91
2023-05-22T09:20:51.895Z,19.95
2023-05-22T09:22:12.846Z,19.96
2023-05-22T09:23:12.846Z,19.94
2023-05-22T09:24:12.790Z,20.03
2023-05-22T09:24:51.786Z,20.19
2023-05-22T09:26:12.738Z,20.18
2023-05-22T09:27:12.701Z,20.04
2023-05-22T09:28:12.682Z,20.21
2023-05-22T09:28:51.655Z,20.21
2023-05-22T09:30:12.623Z,20.10
2023-05-22T09:31:12.631Z,19.94
2023-05-22T09:32:12.572Z,20.04
2023-05-22T09:32:51.536Z,20.14
2023-05-22T09:34:12.524Z,20.07
2023-05-22T09:35:12.483Z,20.00
2023-05-22T09:36:12.421Z,19.89
2023-05-22T09:36:51.429Z,19.99
2023-05-22T09:38:12.485Z,20.06
2023-05-22T09:39:12.385Z,20.13
2023-05-22T09:40:12.324Z,20.13
2023-05-22T09:40:51.287Z,19.91
2023-05-22T09:42:12.272Z,19.89
2023-05-22T09:43:12.244Z,19.81
2023-05-22T09:44:12.216Z,19.88
2023-05-22T09:44:51.209Z,20.00
2023-05-22T09:46:12.184Z,20.11
2023-05-22T09:47:12.165Z,20.10
2023-05-22T09:48:12.081Z,20.07
2023-05-22T09:48:51.059Z,20.10
2023-05-22T09:50:12.028Z,20.00
2023-05-22T09:51:12.033Z,19.92
2023-05-22T09:52:11.971Z,20.04
2023-05-22T09:52:50.952Z,20.04
2023-05-22T09:54:11.942Z,20.02
2023-05-22T09:55:12.039Z,19.89
2023-05-22T09:56:11.838Z,20.07
2023-05-22T09:56:50.844Z,19.92
2023-05-22T09:58:11.800Z,19.95
2023-05-22T09:59:11.770Z,20.07
2023-05-22T10:00:11.723Z,20.11
2023-05-22T10:00:50.697Z,20.19
2023-05-22T10:02:11.751Z,20.03
2023-05-22T10:03:11.652Z,20.02
2023-05-22T10:04:11.681Z,20.04
2023-05-22T10:04:50.706Z,19.96
2023-05-22T10:06:11.554Z,20.07
2023-05-22T10:07:11.590Z,20.21
2023-05-22T10:08:11.475Z,20.34
2023-05-22T10:08:50.457Z,20.13
2023-05-22T10:10:11.432Z,20.19
2023-05-22T10:11:11.402Z,20.14
2023-05-22T10:12:11.379Z,20.29
2023-05-22T10:12:50.342Z,20.31
2023-05-22T10:14:11.311Z,20.34
2023-05-22T10:15:11.281Z,20.16
2023-05-22T10:16:11.275Z,20.16
2023-05-22T10:16:50.216Z,20.19
2023-05-22T10:18:11.221Z,20.22
2023-05-22T10:19:11.212Z,20.18
2023-05-22T10:20:11.181Z,20.28
2023-05-22T10:20:50.108Z,20.29
2023-05-22T10:22:11.099Z,20.21
2023-05-22T10:23:11.094Z,20.26
2023-05-22T10:24:11.023Z,20.44
2023-05-22T10:24:49.969Z,20.43
2023-05-22T10:26:10.967Z,20.47
2023-05-22T10:27:10.931Z,20.65
2023-05-22T10:28:10.902Z,20.59
2023-05-22T10:28:49.880Z,20.59
2023-05-22T10:30:10.833Z,20.47
2023-05-22T10:31:10.854Z,20.48
2023-05-22T10:32:10.802Z,20.47
2023-05-22T10:32:49.810Z,20.52
2023-05-22T10:34:10.833Z,20.41
2023-05-22T10:35:10.696Z,20.21
2023-05-22T10:36:10.656Z,20.25
2023-05-22T10:36:49.662Z,20.32
2023-05-22T10:38:10.581Z,20.47
2023-05-22T10:39:10.571Z,20.52
2023-05-22T10:40:10.559Z,20.50
2023-05-22T10:40:49.533Z,20.65
2023-05-22T10:42:10.500Z,20.67
2023-05-22T10:43:10.449Z,20.70
2023-05-22T10:44:10.439Z,20.47
2023-05-22T10:44:49.402Z,20.32
2023-05-22T10:46:10.439Z,20.19
2023-05-22T10:47:10.349Z,20.19
2023-05-22T10:48:10.430Z,20.28
2023-05-22T10:48:49.290Z,20.43
2023-05-22T10:50:10.258Z,20.55
2023-05-22T10:51:10.223Z,20.50
2023-05-22T10:52:10.206Z,20.48
2023-05-22T10:52:49.166Z,20.58
2023-05-22T10:54:10.144Z,20.58
2023-05-22T10:55:10.123Z,20.62
2023-05-22T10:56:10.061Z,20.63
2023-05-22T10:56:49.090Z,20.59
2023-05-22T10:58:10.012Z,20.67
2023-05-22T10:59:09.989Z,20.69
2023-05-22T11:00:10.011Z,20.75
2023-05-22T11:00:48.936Z,20.87
2023-05-22T11:02:11.549Z,21.00
2023-05-22T11:03:18.027Z,20.90
2023-05-22T11:04:09.827Z,20.84
2023-05-22T11:04:48.860Z,21.00
2023-05-22T11:06:09.806Z,20.96
2023-05-22T11:07:09.753Z,21.02
2023-05-22T11:08:09.736Z,21.12
2023-05-22T11:08:48.713Z,21.12
2023-05-22T11:10:09.676Z,21.02
2023-05-22T11:11:09.622Z,21.02
2023-05-22T11:12:09.599Z,21.15
2023-05-22T11:12:48.569Z,21.18
2023-05-22T11:14:09.543Z,21.17
2023-05-22T11:15:09.527Z,21.09
2023-05-22T11:16:09.487Z,21.03
2023-05-22T11:16:48.502Z,21.20
2023-05-22T11:18:09.505Z,21.32
2023-05-22T11:19:21.883Z,21.40
2023-05-22T11:20:09.532Z,21.39
2023-05-22T11:20:48.377Z,21.35
2023-05-22T11:22:09.305Z,21.37
2023-05-22T11:23:09.331Z,21.35
2023-05-22T11:24:09.274Z,21.40
2023-05-22T11:24:48.214Z,21.50
2023-05-22T11:26:09.211Z,21.48
2023-05-22T11:27:09.191Z,21.55
2023-05-22T11:28:09.165Z,21.25
2023-05-22T11:28:48.111Z,21.15
2023-05-22T11:30:09.088Z,21.21
2023-05-22T11:31:09.093Z,21.50
2023-05-22T11:32:09.064Z,21.58
2023-05-22T11:32:48.080Z,21.64
2023-05-22T11:34:08.997Z,21.70
2023-05-22T11:35:08.962Z,21.76
2023-05-22T11:36:08.913Z,21.88
2023-05-22T11:36:47.924Z,21.79
2023-05-22T11:38:08.927Z,21.92
2023-05-22T11:39:08.819Z,21.92
2023-05-22T11:40:08.820Z,21.83
2023-05-22T11:40:47.807Z,21.75
2023-05-22T11:42:08.772Z,21.77
2023-05-22T11:43:08.726Z,21.73
2023-05-22T11:44:08.677Z,21.70
2023-05-22T11:44:47.670Z,21.83
2023-05-22T11:46:08.669Z,21.92
2023-05-22T11:47:08.616Z,21.95
2023-05-22T11:48:08.640Z,21.95
2023-05-22T11:48:47.546Z,21.89
2023-05-22T11:50:08.510Z,22.20
2023-05-22T11:51:08.475Z,22.38
2023-05-22T11:52:08.491Z,22.29
2023-05-22T11:52:47.435Z,22.38
2023-05-22T11:54:08.427Z,22.41
2023-05-22T11:55:08.380Z,22.47
2023-05-22T11:56:08.397Z,22.63
2023-05-22T11:56:47.330Z,22.76
2023-05-22T11:58:08.266Z,22.85
2023-05-22T11:59:08.241Z,22.78
2023-05-22T12:00:08.572Z,22.66
2023-05-22T12:00:47.284Z,22.44
2023-05-22T12:02:08.189Z,22.36
2023-05-22T12:03:08.268Z,22.65
2023-05-22T12:04:08.221Z,22.66
2023-05-22T12:04:47.106Z,22.75
2023-05-22T12:06:08.167Z,22.98
2023-05-22T12:07:08.059Z,22.88
2023-05-22T12:08:08.019Z,22.87
2023-05-22T12:08:46.980Z,23.21
2023-05-22T12:10:07.965Z,23.20
2023-05-22T12:11:07.951Z,23.39
2023-05-22T12:12:07.900Z,23.06
2023-05-22T12:12:46.894Z,23.28
2023-05-22T12:14:07.840Z,22.99
2023-05-22T12:15:07.845Z,22.94
2023-05-22T12:16:07.832Z,22.98
2023-05-22T12:16:46.853Z,23.13
2023-05-22T12:18:07.759Z,23.39
2023-05-22T12:19:07.779Z,23.50
2023-05-22T12:20:07.715Z,23.51
2023-05-22T12:20:46.681Z,23.27
2023-05-22T12:22:07.625Z,23.32
2023-05-22T12:23:07.616Z,23.17
2023-05-22T12:24:07.576Z,23.31
2023-05-22T12:24:46.537Z,23.15
2023-05-22T12:26:07.546Z,23.24
2023-05-22T12:27:07.517Z,22.90
2023-05-22T12:28:07.515Z,22.98
2023-05-22T12:28:46.476Z,23.02
2023-05-22T12:30:07.448Z,23.17
2023-05-22T12:31:07.415Z,23.32
2023-05-22T12:32:07.392Z,23.36
2023-05-22T12:32:46.371Z,23.46
2023-05-22T12:34:07.345Z,23.40
2023-05-22T12:35:07.305Z,23.20
2023-05-22T12:36:07.262Z,23.25
2023-05-22T12:36:46.240Z,23.21
2023-05-22T12:38:07.229Z,23.37
2023-05-22T12:39:07.181Z,23.65
2023-05-22T12:40:07.161Z,23.83
2023-05-22T12:40:46.111Z,24.03
2023-05-22T12:42:07.089Z,23.88
2023-05-22T12:43:07.073Z,23.95
2023-05-22T12:44:07.056Z,24.03
2023-05-22T12:44:46.050Z,23.84
2023-05-22T12:46:07.052Z,24.08
2023-05-22T12:47:06.988Z,23.98
2023-05-22T12:48:06.986Z,24.05
2023-05-22T12:48:45.908Z,24.08
2023-05-22T12:50:06.906Z,24.20
2023-05-22T12:51:06.882Z,24.43
2023-05-22T12:52:06.839Z,24.57